createdAt,value
2022-12-07T00:01:45.281Z,99103.91
2022-12-07T00:04:16.200Z,99089.28
2022-12-07T00:06:46.550Z,99141.81
2022-12-07T00:09:16.867Z,99155.81
2022-12-07T00:11:44.622Z,99162.09
2022-12-07T00:14:15.137Z,99192.66
2022-12-07T00:16:43.797Z,99155.28
2022-12-07T00:19:13.439Z,99102.41
2022-12-07T00:21:40.565Z,99172.09
2022-12-07T00:24:07.998Z,99145.53
2022-12-07T00:26:39.501Z,99152.63
2022-12-07T00:29:27.147Z,99194.94
2022-12-07T00:31:54.152Z,99166.09
2022-12-07T00:34:22.513Z,99051.47
2022-12-07T00:36:50.541Z,99136.34
2022-12-07T00:39:17.904Z,99160.56
2022-12-07T00:41:44.865Z,99185.53
2022-12-07T00:44:12.227Z,99203.53
2022-12-07T00:46:39.512Z,99169.78
2022-12-07T00:49:08.860Z,99197.03
2022-12-07T00:51:35.907Z,99164.50
2022-12-07T00:54:03.491Z,99199.56
2022-12-07T00:56:30.947Z,99190.91
2022-12-07T00:59:02.736Z,99147.63
2022-12-07T01:01:36.640Z,99101.72
2022-12-07T01:04:04.430Z,99153.66
2022-12-07T01:06:32.480Z,99179.03
2022-12-07T01:09:00.209Z,99151.97
2022-12-07T01:11:30.522Z,99199.34
2022-12-07T01:13:59.623Z,99072.50
2022-12-07T01:16:29.670Z,99136.88
2022-12-07T01:18:59.076Z,99179.28
2022-12-07T01:21:30.430Z,99163.44
2022-12-07T01:24:01.810Z,99136.81
2022-12-07T01:26:29.195Z,99127.34
2022-12-07T01:29:00.201Z,99155.34
2022-12-07T01:31:30.476Z,99146.72
2022-12-07T01:34:00.401Z,99194.88
2022-12-07T01:36:33.617Z,99158.53
2022-12-07T01:39:05.797Z,99199.28
2022-12-07T01:41:37.971Z,99194.53
2022-12-07T01:44:32.234Z,99173.81
2022-12-07T01:47:02.951Z,99205.94
2022-12-07T01:49:43.671Z,99096.34
2022-12-07T01:52:23.850Z,99144.38
2022-12-07T01:54:59.863Z,99077.81
2022-12-07T01:57:27.339Z,99066.72
2022-12-07T01:59:58.011Z,99168.00
2022-12-07T02:02:52.313Z,99204.25
2022-12-07T02:05:20.701Z,99140.25
2022-12-07T02:07:50.170Z,99082.72
2022-12-07T02:10:23.064Z,99133.88
2022-12-07T02:13:07.888Z,99125.44
2022-12-07T02:16:31.718Z,99173.59
2022-12-07T02:19:35.881Z,99174.38
2022-12-07T02:22:31.579Z,99067.44
2022-12-07T02:25:34.762Z,99074.06
2022-12-07T02:28:32.263Z,99113.72
2022-12-07T02:31:09.556Z,99148.91
2022-12-07T02:33:50.701Z,99113.03
2022-12-07T02:36:34.871Z,99130.19
2022-12-07T02:39:18.026Z,99103.28
2022-12-07T02:41:52.412Z,99093.03
2022-12-07T02:44:24.473Z,99185.91
2022-12-07T02:46:58.010Z,99047.41
2022-12-07T02:49:27.916Z,99088.34
2022-12-07T02:51:55.142Z,99079.97
2022-12-07T02:54:23.069Z,99086.22
2022-12-07T02:57:17.335Z,99133.91
2022-12-07T03:00:07.474Z,99151.56
2022-12-07T03:03:00.206Z,99173.75
2022-12-07T03:06:09.231Z,99055.34
2022-12-07T03:08:57.132Z,99105.34
2022-12-07T03:11:37.268Z,99095.66
2022-12-07T03:14:18.854Z,99135.47
2022-12-07T03:16:59.594Z,99156.91
2022-12-07T03:19:28.967Z,99087.25
2022-12-07T03:22:04.370Z,99160.28
2022-12-07T03:24:48.180Z,99125.97
2022-12-07T03:27:22.537Z,99145.03
2022-12-07T03:30:30.207Z,99129.22
2022-12-07T03:33:09.553Z,99124.75
2022-12-07T03:35:52.815Z,99165.00
2022-12-07T03:38:31.941Z,99088.31
2022-12-07T03:41:11.163Z,99127.78
2022-12-07T03:43:39.455Z,99055.28
2022-12-07T03:47:04.889Z,99168.72
2022-12-07T03:49:53.779Z,99036.53
2022-12-07T03:52:51.906Z,99182.41
2022-12-07T03:55:34.513Z,99039.88
2022-12-07T03:58:11.223Z,99073.78
2022-12-07T04:00:38.707Z,99074.38
2022-12-07T04:03:05.966Z,99047.00
2022-12-07T04:05:33.223Z,99150.16
2022-12-07T04:08:01.047Z,99133.16
2022-12-07T04:10:28.074Z,99117.72
2022-12-07T04:12:56.172Z,99132.72
2022-12-07T04:15:23.505Z,99164.19
2022-12-07T04:17:53.323Z,99057.56
2022-12-07T04:20:20.594Z,99055.47
2022-12-07T04:22:47.931Z,99018.56
2022-12-07T04:25:14.959Z,99026.13
2022-12-07T04:27:42.064Z,99061.56
2022-12-07T04:30:09.751Z,99077.72
2022-12-07T04:32:38.621Z,99124.63
2022-12-07T04:35:08.005Z,99046.41
2022-12-07T04:37:35.962Z,99130.69
2022-12-07T04:40:03.582Z,99065.56
2022-12-07T04:42:33.392Z,99106.91
2022-12-07T04:45:00.897Z,99005.78
2022-12-07T04:47:27.867Z,99141.34
2022-12-07T04:49:55.090Z,99112.13
2022-12-07T04:52:23.384Z,99109.31
2022-12-07T04:54:53.615Z,99174.19
2022-12-07T04:57:20.570Z,99085.38
2022-12-07T04:59:49.824Z,99089.03
2022-12-07T05:02:16.945Z,99079.72
2022-12-07T05:04:44.023Z,99147.53
2022-12-07T05:07:11.068Z,99089.09
2022-12-07T05:09:37.988Z,99099.34
2022-12-07T05:12:05.269Z,99075.75
2022-12-07T05:14:32.271Z,99125.00
2022-12-07T05:17:01.293Z,99128.56
2022-12-07T05:19:28.642Z,99096.69
2022-12-07T05:21:55.813Z,99103.06
2022-12-07T05:24:22.976Z,99076.03
2022-12-07T05:26:52.445Z,98990.09
2022-12-07T05:29:19.774Z,99036.50
2022-12-07T05:31:46.960Z,99009.91
2022-12-07T05:34:14.415Z,99095.50
2022-12-07T05:36:41.429Z,99082.75
2022-12-07T05:39:09.788Z,99063.84
2022-12-07T05:41:55.643Z,98957.66
2022-12-07T05:44:25.635Z,99016.44
2022-12-07T05:46:57.774Z,99066.16
2022-12-07T05:49:24.698Z,99036.97
2022-12-07T05:51:51.643Z,99044.38
2022-12-07T05:54:18.739Z,99039.53
2022-12-07T05:56:45.693Z,98930.22
2022-12-07T05:59:25.243Z,99038.84
2022-12-07T06:01:57.664Z,99040.31
2022-12-07T06:04:31.505Z,99059.41
2022-12-07T06:06:59.390Z,99009.31
2022-12-07T06:09:28.669Z,99070.94
2022-12-07T06:12:15.663Z,99123.31
2022-12-07T06:14:42.903Z,99023.63
2022-12-07T06:17:10.700Z,99044.22
2022-12-07T06:19:37.759Z,99039.31
2022-12-07T06:22:10.266Z,99015.69
2022-12-07T06:24:37.276Z,99029.31
2022-12-07T06:27:04.811Z,98984.44
2022-12-07T06:29:31.893Z,98984.72
2022-12-07T06:31:58.955Z,98965.19
2022-12-07T06:34:27.136Z,98955.31
2022-12-07T06:36:55.983Z,98930.91
2022-12-07T06:39:26.272Z,98995.31
2022-12-07T06:41:54.897Z,98938.75
2022-12-07T06:44:24.342Z,98984.22
2022-12-07T06:46:54.041Z,98981.94
2022-12-07T06:49:25.692Z,98919.69
2022-12-07T06:51:52.652Z,98968.28
2022-12-07T06:54:19.789Z,98986.47
2022-12-07T06:56:46.757Z,98935.72
2022-12-07T06:59:14.078Z,98982.03
2022-12-07T07:01:41.144Z,99053.22
2022-12-07T07:04:08.074Z,99066.66
2022-12-07T07:06:35.685Z,99082.16
2022-12-07T07:09:03.585Z,98898.22
2022-12-07T07:11:30.695Z,98936.41
2022-12-07T07:14:00.040Z,98933.22
2022-12-07T07:16:28.073Z,98967.25
2022-12-07T07:18:55.042Z,99033.03
2022-12-07T07:21:22.255Z,98954.00
2022-12-07T07:23:50.081Z,98955.28
2022-12-07T07:26:22.994Z,99006.56
2022-12-07T07:28:50.738Z,98989.00
2022-12-07T07:31:23.198Z,98971.91
2022-12-07T07:33:50.497Z,99039.63
2022-12-07T07:36:19.916Z,98997.44
2022-12-07T07:38:49.746Z,99060.41
2022-12-07T07:41:22.431Z,98964.91
2022-12-07T07:43:49.768Z,99006.38
2022-12-07T07:46:16.750Z,99139.19
2022-12-07T07:48:44.114Z,99047.13
2022-12-07T07:51:11.159Z,99117.13
2022-12-07T07:53:38.088Z,99003.84
2022-12-07T07:56:07.830Z,99009.28
2022-12-07T07:58:36.960Z,98962.94
2022-12-07T08:01:08.153Z,99150.88
2022-12-07T08:03:35.513Z,99155.81
2022-12-07T08:06:04.548Z,99049.72
2022-12-07T08:08:32.014Z,99050.16
2022-12-07T08:11:04.302Z,99150.38
2022-12-07T08:13:33.819Z,99184.25
2022-12-07T08:16:07.216Z,99182.91
2022-12-07T08:18:38.281Z,99062.88
2022-12-07T08:21:06.190Z,99054.03
2022-12-07T08:23:40.056Z,99197.50
2022-12-07T08:26:11.411Z,99138.91
2022-12-07T08:28:38.455Z,99158.81
2022-12-07T08:31:14.135Z,99128.91
2022-12-07T08:33:42.868Z,99145.84
2022-12-07T08:36:12.660Z,99168.44
2022-12-07T08:38:47.779Z,99120.75
2022-12-07T08:41:23.567Z,99168.31
2022-12-07T08:43:52.612Z,99195.31
2022-12-07T08:46:39.784Z,99199.78
2022-12-07T08:49:15.832Z,99181.56
2022-12-07T08:51:43.096Z,99139.78
2022-12-07T08:54:16.430Z,99160.84
2022-12-07T08:56:44.840Z,99212.19
2022-12-07T08:59:14.395Z,99173.28
2022-12-07T09:01:41.578Z,99190.56
2022-12-07T09:04:08.618Z,99222.97
2022-12-07T09:06:38.361Z,99212.44
2022-12-07T09:09:05.429Z,99154.63
2022-12-07T09:11:32.510Z,99224.94
2022-12-07T09:14:00.018Z,99271.75
2022-12-07T09:16:29.680Z,99254.63
2022-12-07T09:18:59.472Z,99173.56
2022-12-07T09:21:26.442Z,99156.78
2022-12-07T09:23:53.638Z,99208.50
2022-12-07T09:26:20.541Z,99173.47
2022-12-07T09:28:47.643Z,99248.09
2022-12-07T09:31:23.462Z,99202.59
2022-12-07T09:33:59.822Z,99116.53
2022-12-07T09:36:28.787Z,99247.75
2022-12-07T09:38:56.275Z,99198.75
2022-12-07T09:41:25.923Z,99247.91
2022-12-07T09:43:57.599Z,99182.72
2022-12-07T09:46:24.731Z,99261.44
2022-12-07T09:48:52.525Z,99180.31
2022-12-07T09:51:25.943Z,99305.00
2022-12-07T09:53:56.276Z,99155.06
2022-12-07T09:56:24.753Z,99257.19
2022-12-07T09:59:02.122Z,99296.16
2022-12-07T10:01:32.927Z,99247.22
2022-12-07T10:04:26.174Z,99275.41
2022-12-07T10:06:53.551Z,99201.81
2022-12-07T10:09:23.368Z,99177.47
2022-12-07T10:12:19.668Z,99265.63
2022-12-07T10:15:08.228Z,99298.94
2022-12-07T10:17:40.994Z,99277.25
2022-12-07T10:20:26.135Z,99160.63
2022-12-07T10:23:06.457Z,99257.91
2022-12-07T10:25:37.656Z,99173.59
2022-12-07T10:28:20.351Z,99315.31
2022-12-07T10:30:48.899Z,99265.19
2022-12-07T10:33:49.266Z,99291.81
2022-12-07T10:36:23.053Z,99179.75
2022-12-07T10:39:05.234Z,99181.59
2022-12-07T10:41:33.239Z,99307.09
2022-12-07T10:44:01.448Z,99251.66
2022-12-07T10:47:01.791Z,99115.53
2022-12-07T10:49:54.676Z,99272.59
2022-12-07T10:52:40.596Z,99308.81
2022-12-07T10:55:42.059Z,99247.16
2022-12-07T10:58:51.195Z,99186.34
2022-12-07T11:01:34.413Z,99323.97
2022-12-07T11:04:23.363Z,99192.44
2022-12-07T11:07:23.369Z,99242.13
2022-12-07T11:10:18.683Z,99270.63
2022-12-07T11:13:11.657Z,99307.59
2022-12-07T11:16:19.689Z,99249.34
2022-12-07T11:18:52.338Z,99272.31
2022-12-07T11:21:33.715Z,99174.28
2022-12-07T11:24:18.039Z,99193.44
2022-12-07T11:27:31.893Z,99207.13
2022-12-07T11:30:23.303Z,99271.72
2022-12-07T11:33:29.808Z,99213.50
2022-12-07T11:36:25.056Z,99160.53
2022-12-07T11:38:57.460Z,99273.72
2022-12-07T11:41:30.930Z,99288.53
2022-12-07T11:44:48.260Z,99239.88
2022-12-07T11:47:27.902Z,99225.41
2022-12-07T11:50:14.935Z,99228.66
2022-12-07T11:52:55.335Z,99251.81
2022-12-07T11:55:40.764Z,99262.28
2022-12-07T11:58:51.300Z,99102.84
2022-12-07T12:01:39.400Z,99233.75
2022-12-07T12:04:12.745Z,99209.41
2022-12-07T12:06:46.289Z,99167.22
2022-12-07T12:09:38.788Z,99285.91
2022-12-07T12:15:44.198Z,99286.25
2022-12-07T12:18:28.903Z,99175.13
2022-12-07T12:21:19.803Z,99172.38
2022-12-07T12:24:14.278Z,99138.44
2022-12-07T12:26:59.926Z,99233.56
2022-12-07T12:29:42.127Z,99132.22
2022-12-07T12:32:20.458Z,99161.41
2022-12-07T12:35:01.298Z,99206.09
2022-12-07T12:37:34.038Z,99174.50
2022-12-07T12:40:16.267Z,99230.28
2022-12-07T12:42:53.206Z,99174.75
2022-12-07T12:45:21.984Z,99202.25
2022-12-07T12:47:59.073Z,99240.91
2022-12-07T12:50:39.318Z,99301.94
2022-12-07T12:53:27.610Z,99184.81
2022-12-07T12:56:51.557Z,99322.47
2022-12-07T13:00:00.738Z,99159.56
2022-12-07T13:02:36.104Z,99271.34
2022-12-07T13:05:08.684Z,99267.19
2022-12-07T13:07:48.127Z,99299.72
2022-12-07T13:10:30.093Z,99281.41
2022-12-07T13:12:58.478Z,99188.19
2022-12-07T13:16:07.452Z,99347.22
2022-12-07T13:18:34.570Z,99222.81
2022-12-07T13:21:10.555Z,99270.34
2022-12-07T13:23:46.802Z,99184.53
2022-12-07T13:26:31.638Z,99217.97
2022-12-07T13:29:11.531Z,99192.97
2022-12-07T13:32:06.881Z,99234.59
2022-12-07T13:34:42.753Z,99168.47
2022-12-07T13:37:30.511Z,99268.66
2022-12-07T13:40:20.927Z,99199.44
2022-12-07T13:42:48.119Z,99295.81
2022-12-07T13:45:49.417Z,99200.00
2022-12-07T13:48:23.540Z,99251.25
2022-12-07T13:50:56.895Z,99267.72
2022-12-07T13:53:25.636Z,99191.38
2022-12-07T13:55:54.722Z,99294.78
2022-12-07T13:58:23.520Z,99281.41
2022-12-07T14:00:50.930Z,99204.91
2022-12-07T14:03:17.977Z,99233.72
2022-12-07T14:05:46.572Z,99208.25
2022-12-07T14:08:13.941Z,99140.72
2022-12-07T14:10:49.610Z,99201.88
2022-12-07T14:13:42.120Z,99209.75
2022-12-07T14:16:38.602Z,99247.94
2022-12-07T14:19:27.303Z,99111.41
2022-12-07T14:22:36.052Z,99228.84
2022-12-07T14:25:20.772Z,99130.16
2022-12-07T14:27:57.341Z,99168.84
2022-12-07T14:30:33.650Z,99239.03
2022-12-07T14:33:23.955Z,99137.63
2022-12-07T14:35:51.566Z,99174.56
2022-12-07T14:38:19.664Z,99149.47
2022-12-07T14:40:47.134Z,99113.41
2022-12-07T14:43:20.426Z,99179.09
2022-12-07T14:45:47.878Z,99178.25
2022-12-07T14:53:57.140Z,99073.78
2022-12-07T14:56:25.628Z,99169.78
2022-12-07T14:58:52.972Z,99108.34
2022-12-07T15:01:20.248Z,99150.66
2022-12-07T15:03:47.257Z,99102.38
2022-12-07T15:06:18.273Z,99152.78
2022-12-07T15:08:45.801Z,99145.34
2022-12-07T15:11:17.736Z,99059.03
2022-12-07T15:14:03.824Z,99110.19
2022-12-07T15:16:52.472Z,99137.16
2022-12-07T15:19:30.137Z,99055.00
2022-12-07T15:21:59.439Z,99066.63
2022-12-07T15:24:27.141Z,99074.13
2022-12-07T15:26:54.542Z,99080.94
2022-12-07T15:29:23.581Z,99047.78
2022-12-07T15:31:57.553Z,99036.19
2022-12-07T15:34:36.422Z,99074.53
2022-12-07T15:37:07.564Z,99004.88
2022-12-07T15:39:35.491Z,99025.81
2022-12-07T15:42:03.204Z,99039.03
2022-12-07T15:44:50.300Z,98942.81
2022-12-07T15:47:17.573Z,98982.19
2022-12-07T15:49:45.444Z,99049.88
2022-12-07T15:52:13.170Z,99046.09
2022-12-07T15:54:40.669Z,98951.22
2022-12-07T15:57:07.724Z,98943.53
2022-12-07T15:59:34.972Z,98990.16
2022-12-07T16:02:01.985Z,99026.22
2022-12-07T16:04:30.635Z,99026.44
2022-12-07T16:07:00.356Z,98888.28
2022-12-07T16:09:27.951Z,99013.13
2022-12-07T16:11:55.830Z,98938.78
2022-12-07T16:14:22.911Z,99029.50
2022-12-07T16:16:50.139Z,98890.97
2022-12-07T16:19:17.284Z,98892.59
2022-12-07T16:21:44.398Z,98874.63
2022-12-07T16:24:16.054Z,98832.25
2022-12-07T16:26:49.703Z,98870.63
2022-12-07T16:29:20.772Z,98838.88
2022-12-07T16:31:52.023Z,98914.09
2022-12-07T16:34:19.645Z,98890.19
2022-12-07T16:37:06.961Z,98907.72
2022-12-07T16:39:35.185Z,98887.50
2022-12-07T16:42:03.144Z,98888.25
2022-12-07T16:44:30.059Z,98909.06
2022-12-07T16:46:57.299Z,98837.91
2022-12-07T16:49:25.334Z,98902.44
2022-12-07T16:52:14.752Z,98925.38
2022-12-07T16:54:40.326Z,98957.31
2022-12-07T16:57:07.425Z,98856.34
2022-12-07T16:59:34.598Z,98784.34
2022-12-07T17:02:01.693Z,98850.50
2022-12-07T17:04:29.429Z,98828.34
2022-12-07T17:06:56.493Z,98848.84
2022-12-07T17:09:23.471Z,98939.50
2022-12-07T17:11:50.704Z,98871.19
2022-12-07T17:14:36.555Z,98858.53
2022-12-07T17:17:05.443Z,98843.25
2022-12-07T17:19:32.455Z,98918.38
2022-12-07T17:22:01.343Z,98809.59
2022-12-07T17:24:28.746Z,98818.97
2022-12-07T17:26:55.718Z,98824.34
2022-12-07T17:29:22.893Z,98780.31
2022-12-07T17:31:51.909Z,98735.41
2022-12-07T17:34:19.686Z,98812.75
2022-12-07T17:36:49.748Z,98783.94
2022-12-07T17:39:19.658Z,98804.66
2022-12-07T17:42:05.647Z,98812.66
2022-12-07T17:44:33.099Z,98786.47
2022-12-07T17:47:02.704Z,98768.81
2022-12-07T17:49:30.298Z,98825.94
2022-12-07T17:52:16.064Z,98724.91
2022-12-07T17:54:43.229Z,98801.19
2022-12-07T17:57:10.257Z,98748.09
2022-12-07T17:59:39.684Z,98723.19
2022-12-07T18:02:09.577Z,98811.53
2022-12-07T18:04:36.820Z,98765.09
2022-12-07T18:07:06.625Z,98714.56
2022-12-07T18:09:36.077Z,98758.47
2022-12-07T18:12:04.205Z,98866.16
2022-12-07T18:14:31.516Z,98736.19
2022-12-07T18:16:59.726Z,98811.13
2022-12-07T18:19:26.852Z,98832.25
2022-12-07T18:21:53.838Z,98791.50
2022-12-07T18:24:20.865Z,98740.50
2022-12-07T18:26:48.169Z,98737.63
2022-12-07T18:29:18.423Z,98694.59
2022-12-07T18:31:52.265Z,98696.25
2022-12-07T18:34:22.219Z,98727.13
2022-12-07T18:36:53.293Z,98762.25
2022-12-07T18:39:20.417Z,98776.06
2022-12-07T18:41:48.649Z,98792.69
2022-12-07T18:44:17.032Z,98678.31
2022-12-07T18:46:44.268Z,98685.13
2022-12-07T18:49:16.567Z,98810.97
2022-12-07T18:51:45.252Z,98726.53
2022-12-07T18:54:14.734Z,98711.88
2022-12-07T18:56:43.991Z,98668.38
2022-12-07T18:59:32.846Z,98703.88
2022-12-07T19:02:00.159Z,98687.44
2022-12-07T19:04:29.954Z,98686.97
2022-12-07T19:06:57.250Z,98727.47
2022-12-07T19:09:28.997Z,98666.75
2022-12-07T19:11:57.087Z,98624.88
2022-12-07T19:14:33.094Z,98620.47
2022-12-07T19:17:06.142Z,98720.53
2022-12-07T19:19:37.726Z,98693.41
2022-12-07T19:22:10.522Z,98714.28
2022-12-07T19:24:38.329Z,98788.69
2022-12-07T19:27:07.653Z,98779.84
2022-12-07T19:29:35.210Z,98663.50
2022-12-07T19:32:04.475Z,98611.94
2022-12-07T19:34:32.208Z,98595.75
2022-12-07T19:36:59.399Z,98610.78
2022-12-07T19:39:26.858Z,98648.72
2022-12-07T19:41:57.082Z,98758.97
2022-12-07T19:44:27.701Z,98732.97
2022-12-07T19:47:04.303Z,98707.91
2022-12-07T19:49:35.531Z,98590.94
2022-12-07T19:52:08.988Z,98619.50
2022-12-07T19:54:36.988Z,98647.75
2022-12-07T19:57:05.919Z,98748.75
2022-12-07T19:59:34.265Z,98675.56
2022-12-07T20:02:07.972Z,98767.69
2022-12-07T20:04:35.864Z,98755.50
2022-12-07T20:07:04.277Z,98623.78
2022-12-07T20:09:31.670Z,98782.31
2022-12-07T20:12:20.885Z,98628.59
2022-12-07T20:14:48.212Z,98619.81
2022-12-07T20:17:17.125Z,98721.94
2022-12-07T20:19:44.428Z,98655.47
2022-12-07T20:22:11.485Z,98665.06
2022-12-07T20:24:38.645Z,98635.41
2022-12-07T20:27:06.353Z,98611.34
2022-12-07T20:29:36.716Z,98606.44
2022-12-07T20:32:04.351Z,98562.03
2022-12-07T20:34:31.718Z,98597.72
2022-12-07T20:36:58.844Z,98579.25
2022-12-07T20:39:25.863Z,98624.81
2022-12-07T20:42:36.018Z,98583.53
2022-12-07T20:45:09.329Z,98682.78
2022-12-07T20:47:40.153Z,98658.22
2022-12-07T20:50:08.056Z,98617.13
2022-12-07T20:52:34.975Z,98708.94
2022-12-07T20:55:05.188Z,98728.66
2022-12-07T20:57:36.202Z,98667.75
2022-12-07T21:00:06.943Z,98634.63
2022-12-07T21:02:35.337Z,98665.38
2022-12-07T21:05:02.899Z,98633.66
2022-12-07T21:07:32.983Z,98709.16
2022-12-07T21:09:59.919Z,98651.25
2022-12-07T21:12:29.509Z,98637.81
2022-12-07T21:15:00.932Z,98662.97
2022-12-07T21:17:29.143Z,98694.03
2022-12-07T21:19:56.218Z,98613.56
2022-12-07T21:22:27.828Z,98616.44
2022-12-07T21:24:56.171Z,98610.22
2022-12-07T21:27:25.411Z,98668.41
2022-12-07T21:29:57.399Z,98691.31
2022-12-07T21:32:24.404Z,98604.13
2022-12-07T21:34:51.478Z,98647.22
2022-12-07T21:37:20.677Z,98729.22
2022-12-07T21:39:47.880Z,98616.50
2022-12-07T21:42:15.774Z,98731.41
2022-12-07T21:44:42.784Z,98706.03
2022-12-07T21:47:09.969Z,98666.19
2022-12-07T21:49:37.037Z,98593.25
2022-12-07T21:52:04.971Z,98653.31
2022-12-07T21:54:32.578Z,98568.28
2022-12-07T21:56:59.717Z,98724.97
2022-12-07T21:59:29.441Z,98732.34
2022-12-07T22:01:56.693Z,98752.09
2022-12-07T22:04:29.281Z,98721.06
2022-12-07T22:06:57.452Z,98613.06
2022-12-07T22:09:24.643Z,98735.66
2022-12-07T22:11:51.848Z,98744.34
2022-12-07T22:14:38.919Z,98709.56
2022-12-07T22:17:05.912Z,98682.88
2022-12-07T22:19:33.138Z,98722.78
2022-12-07T22:22:02.835Z,98748.28
2022-12-07T22:24:29.984Z,98708.09
2022-12-07T22:26:56.916Z,98704.94
2022-12-07T22:29:26.027Z,98663.31
2022-12-07T22:31:54.525Z,98695.97
2022-12-07T22:34:22.207Z,98750.44
2022-12-07T22:36:49.370Z,98739.78
2022-12-07T22:39:16.342Z,98622.31
2022-12-07T22:41:43.886Z,98680.38
2022-12-07T22:44:11.407Z,98718.16
2022-12-07T22:46:39.370Z,98702.97
2022-12-07T22:49:07.165Z,98662.88
2022-12-07T22:51:37.484Z,98605.97
2022-12-07T22:54:13.922Z,98617.31
2022-12-07T22:56:40.855Z,98690.66
2022-12-07T22:59:09.678Z,98683.41
2022-12-07T23:01:36.783Z,98690.56
2022-12-07T23:04:06.499Z,98620.72
2022-12-07T23:06:36.418Z,98625.22
2022-12-07T23:09:08.619Z,98573.28
2022-12-07T23:11:58.020Z,98576.50
2022-12-07T23:14:36.884Z,98637.69
2022-12-07T23:19:57.506Z,98664.28
2022-12-07T23:22:26.493Z,98605.78
2022-12-07T23:24:56.361Z,98619.50
2022-12-07T23:27:26.523Z,98678.47
2022-12-07T23:29:53.622Z,98598.28
2022-12-07T23:32:22.939Z,98638.44
2022-12-07T23:34:49.858Z,98590.59
2022-12-07T23:37:17.077Z,98512.75
2022-12-07T23:39:47.339Z,98532.91
2022-12-07T23:42:19.561Z,98576.13
2022-12-07T23:44:49.081Z,98562.88
2022-12-07T23:47:16.309Z,98596.66
2022-12-07T23:49:43.432Z,98608.97
2022-12-07T23:52:14.951Z,98602.34
2022-12-07T23:54:42.197Z,98629.78
2022-12-07T23:57:09.103Z,98561.25
2022-12-07T23:59:38.139Z,98567.94
